sensor_id;sensor_type;location;lat;lon;timestamp;P1;durP1;ratioP1;P2;durP2;ratioP2
35324;SDS011;35135;47.510;19.036;2023-07-29T00:01:59;2.60;;;2.20;;
35324;SDS011;35135;47.510;19.036;2023-07-29T00:04:25;2.50;;;1.95;;
35324;SDS011;35135;47.510;19.036;2023-07-29T00:06:51;2.40;;;2.17;;
35324;SDS011;35135;47.510;19.036;2023-07-29T00:09:16;2.50;;;1.92;;
35324;SDS011;35135;47.510;19.036;2023-07-29T00:11:42;2.10;;;1.90;;
35324;SDS011;35135;47.510;19.036;2023-07-29T00:14:07;2.40;;;1.92;;
35324;SDS011;35135;47.510;19.036;2023-07-29T00:16:33;2.63;;;1.92;;
35324;SDS011;35135;47.510;19.036;2023-07-29T00:18:59;3.38;;;2.15;;
35324;SDS011;35135;47.510;19.036;2023-07-29T00:21:24;2.83;;;1.80;;
35324;SDS011;35135;47.510;19.036;2023-07-29T00:23:50;2.22;;;1.80;;
35324;SDS011;35135;47.510;19.036;2023-07-29T00:26:16;3.08;;;1.90;;
35324;SDS011;35135;47.510;19.036;2023-07-29T00:28:42;2.28;;;1.92;;
35324;SDS011;35135;47.510;19.036;2023-07-29T00:31:08;2.00;;;1.80;;
35324;SDS011;35135;47.510;19.036;2023-07-29T00:33:33;2.78;;;1.98;;
35324;SDS011;35135;47.510;19.036;2023-07-29T00:35:59;1.95;;;1.65;;
35324;SDS011;35135;47.510;19.036;2023-07-29T00:38:28;3.28;;;2.10;;
35324;SDS011;35135;47.510;19.036;2023-07-29T00:40:54;1.92;;;1.70;;
35324;SDS011;35135;47.510;19.036;2023-07-29T00:43:25;2.20;;;1.95;;
35324;SDS011;35135;47.510;19.036;2023-07-29T00:45:50;2.00;;;1.83;;
35324;SDS011;35135;47.510;19.036;2023-07-29T00:48:17;2.00;;;1.80;;
35324;SDS011;35135;47.510;19.036;2023-07-29T00:50:43;2.10;;;1.90;;
35324;SDS011;35135;47.510;19.036;2023-07-29T00:53:09;2.38;;;1.73;;
35324;SDS011;35135;47.510;19.036;2023-07-29T00:55:35;1.92;;;1.65;;
35324;SDS011;35135;47.510;19.036;2023-07-29T00:58:01;3.17;;;1.90;;
35324;SDS011;35135;47.510;19.036;2023-07-29T01:00:28;2.15;;;1.90;;
35324;SDS011;35135;47.510;19.036;2023-07-29T01:02:53;2.25;;;1.95;;
35324;SDS011;35135;47.510;19.036;2023-07-29T01:05:20;2.08;;;1.88;;
35324;SDS011;35135;47.510;19.036;2023-07-29T01:12:49;2.20;;;1.98;;
35324;SDS011;35135;47.510;19.036;2023-07-29T01:17:55;2.20;;;1.98;;
35324;SDS011;35135;47.510;19.036;2023-07-29T01:20:26;2.28;;;1.90;;
35324;SDS011;35135;47.510;19.036;2023-07-29T01:22:53;2.38;;;1.80;;
35324;SDS011;35135;47.510;19.036;2023-07-29T01:25:19;1.90;;;1.70;;
35324;SDS011;35135;47.510;19.036;2023-07-29T01:27:46;3.13;;;1.88;;
35324;SDS011;35135;47.510;19.036;2023-07-29T01:30:12;2.40;;;1.95;;
35324;SDS011;35135;47.510;19.036;2023-07-29T01:35:27;2.22;;;1.80;;
35324;SDS011;35135;47.510;19.036;2023-07-29T01:38:05;2.08;;;1.75;;
35324;SDS011;35135;47.510;19.036;2023-07-29T01:40:36;2.22;;;1.92;;
35324;SDS011;35135;47.510;19.036;2023-07-29T01:43:01;2.25;;;1.92;;
35324;SDS011;35135;47.510;19.036;2023-07-29T01:45:27;2.97;;;1.80;;
35324;SDS011;35135;47.510;19.036;2023-07-29T01:47:56;2.05;;;1.85;;
35324;SDS011;35135;47.510;19.036;2023-07-29T01:50:22;2.10;;;1.83;;
35324;SDS011;35135;47.510;19.036;2023-07-29T01:52:48;2.20;;;2.00;;
35324;SDS011;35135;47.510;19.036;2023-07-29T01:55:13;2.22;;;1.75;;
35324;SDS011;35135;47.510;19.036;2023-07-29T01:57:39;2.08;;;1.60;;
35324;SDS011;35135;47.510;19.036;2023-07-29T02:00:05;1.95;;;1.73;;
35324;SDS011;35135;47.510;19.036;2023-07-29T02:02:31;2.88;;;2.25;;
35324;SDS011;35135;47.510;19.036;2023-07-29T02:04:57;1.75;;;1.60;;
35324;SDS011;35135;47.510;19.036;2023-07-29T02:07:23;2.17;;;1.98;;
35324;SDS011;35135;47.510;19.036;2023-07-29T02:09:51;3.42;;;2.33;;
35324;SDS011;35135;47.510;19.036;2023-07-29T02:12:17;2.03;;;1.77;;
35324;SDS011;35135;47.510;19.036;2023-07-29T02:14:42;2.30;;;1.90;;
35324;SDS011;35135;47.510;19.036;2023-07-29T02:17:08;2.95;;;1.50;;
35324;SDS011;35135;47.510;19.036;2023-07-29T02:19:34;2.17;;;1.98;;
35324;SDS011;35135;47.510;19.036;2023-07-29T02:22:00;3.03;;;2.20;;
35324;SDS011;35135;47.510;19.036;2023-07-29T02:24:25;2.70;;;2.10;;
35324;SDS011;35135;47.510;19.036;2023-07-29T02:26:51;2.88;;;2.00;;
35324;SDS011;35135;47.510;19.036;2023-07-29T02:29:16;3.33;;;2.00;;
35324;SDS011;35135;47.510;19.036;2023-07-29T02:31:42;2.10;;;1.90;;
35324;SDS011;35135;47.510;19.036;2023-07-29T02:34:09;2.65;;;2.22;;
35324;SDS011;35135;47.510;19.036;2023-07-29T02:36:34;1.80;;;1.63;;
35324;SDS011;35135;47.510;19.036;2023-07-29T02:39:00;3.38;;;2.08;;
35324;SDS011;35135;47.510;19.036;2023-07-29T02:41:26;2.95;;;1.90;;
35324;SDS011;35135;47.510;19.036;2023-07-29T02:43:51;2.70;;;2.15;;
35324;SDS011;35135;47.510;19.036;2023-07-29T02:46:17;2.20;;;1.83;;
35324;SDS011;35135;47.510;19.036;2023-07-29T02:48:44;2.28;;;2.08;;
35324;SDS011;35135;47.510;19.036;2023-07-29T02:51:10;2.28;;;1.80;;
35324;SDS011;35135;47.510;19.036;2023-07-29T02:53:35;2.30;;;1.90;;
35324;SDS011;35135;47.510;19.036;2023-07-29T02:56:04;2.17;;;1.98;;
35324;SDS011;35135;47.510;19.036;2023-07-29T02:58:31;2.10;;;1.80;;
35324;SDS011;35135;47.510;19.036;2023-07-29T03:01:06;2.45;;;2.20;;
35324;SDS011;35135;47.510;19.036;2023-07-29T03:03:32;2.22;;;2.00;;
35324;SDS011;35135;47.510;19.036;2023-07-29T03:06:07;2.40;;;1.85;;
35324;SDS011;35135;47.510;19.036;2023-07-29T03:08:34;3.03;;;1.63;;
35324;SDS011;35135;47.510;19.036;2023-07-29T03:11:07;2.08;;;1.88;;
35324;SDS011;35135;47.510;19.036;2023-07-29T03:13:37;2.00;;;1.80;;
35324;SDS011;35135;47.510;19.036;2023-07-29T03:16:07;3.33;;;2.13;;
35324;SDS011;35135;47.510;19.036;2023-07-29T03:18:35;2.22;;;1.70;;
35324;SDS011;35135;47.510;19.036;2023-07-29T03:21:01;2.53;;;2.10;;
35324;SDS011;35135;47.510;19.036;2023-07-29T03:23:27;2.05;;;1.75;;
35324;SDS011;35135;47.510;19.036;2023-07-29T03:25:57;2.88;;;1.98;;
35324;SDS011;35135;47.510;19.036;2023-07-29T03:28:27;2.17;;;1.77;;
35324;SDS011;35135;47.510;19.036;2023-07-29T03:30:54;2.35;;;2.15;;
35324;SDS011;35135;47.510;19.036;2023-07-29T03:33:23;2.10;;;1.83;;
35324;SDS011;35135;47.510;19.036;2023-07-29T03:35:50;2.72;;;1.92;;
35324;SDS011;35135;47.510;19.036;2023-07-29T03:38:16;2.30;;;2.10;;
35324;SDS011;35135;47.510;19.036;2023-07-29T03:40:42;1.85;;;1.60;;
35324;SDS011;35135;47.510;19.036;2023-07-29T03:43:08;2.70;;;2.00;;
35324;SDS011;35135;47.510;19.036;2023-07-29T03:45:34;2.50;;;1.90;;
35324;SDS011;35135;47.510;19.036;2023-07-29T03:48:01;2.47;;;2.20;;
35324;SDS011;35135;47.510;19.036;2023-07-29T03:50:27;2.00;;;1.80;;
35324;SDS011;35135;47.510;19.036;2023-07-29T03:52:54;1.80;;;1.70;;
35324;SDS011;35135;47.510;19.036;2023-07-29T03:55:20;2.28;;;1.70;;
35324;SDS011;35135;47.510;19.036;2023-07-29T03:57:46;2.33;;;1.90;;
35324;SDS011;35135;47.510;19.036;2023-07-29T04:00:12;2.72;;;2.20;;
35324;SDS011;35135;47.510;19.036;2023-07-29T04:02:38;2.15;;;1.92;;
35324;SDS011;35135;47.510;19.036;2023-07-29T04:05:04;2.45;;;2.08;;
35324;SDS011;35135;47.510;19.036;2023-07-29T04:07:31;2.08;;;1.80;;
35324;SDS011;35135;47.510;19.036;2023-07-29T04:09:57;2.50;;;2.28;;
35324;SDS011;35135;47.510;19.036;2023-07-29T04:12:23;2.70;;;1.88;;
35324;SDS011;35135;47.510;19.036;2023-07-29T04:14:49;2.38;;;2.10;;
35324;SDS011;35135;47.510;19.036;2023-07-29T04:17:15;2.40;;;1.90;;
35324;SDS011;35135;47.510;19.036;2023-07-29T04:19:41;2.25;;;2.05;;
35324;SDS011;35135;47.510;19.036;2023-07-29T04:22:06;2.05;;;1.85;;
35324;SDS011;35135;47.510;19.036;2023-07-29T04:24:32;3.22;;;2.08;;
35324;SDS011;35135;47.510;19.036;2023-07-29T04:26:58;2.67;;;2.08;;
35324;SDS011;35135;47.510;19.036;2023-07-29T04:29:23;2.33;;;1.67;;
35324;SDS011;35135;47.510;19.036;2023-07-29T04:31:49;2.60;;;1.83;;
35324;SDS011;35135;47.510;19.036;2023-07-29T04:34:15;2.95;;;2.22;;
35324;SDS011;35135;47.510;19.036;2023-07-29T04:36:42;2.65;;;1.95;;
35324;SDS011;35135;47.510;19.036;2023-07-29T04:39:07;2.28;;;1.90;;
35324;SDS011;35135;47.510;19.036;2023-07-29T04:41:34;2.30;;;2.10;;
35324;SDS011;35135;47.510;19.036;2023-07-29T04:43:59;2.65;;;2.20;;
35324;SDS011;35135;47.510;19.036;2023-07-29T04:46:25;4.25;;;2.00;;
35324;SDS011;35135;47.510;19.036;2023-07-29T04:48:51;3.58;;;2.10;;
35324;SDS011;35135;47.510;19.036;2023-07-29T04:51:16;2.60;;;2.10;;
35324;SDS011;35135;47.510;19.036;2023-07-29T04:53:42;2.53;;;2.20;;
35324;SDS011;35135;47.510;19.036;2023-07-29T04:56:08;2.53;;;2.30;;
35324;SDS011;35135;47.510;19.036;2023-07-29T04:58:33;2.40;;;2.05;;
35324;SDS011;35135;47.510;19.036;2023-07-29T05:01:00;2.50;;;2.10;;
35324;SDS011;35135;47.510;19.036;2023-07-29T05:03:27;2.50;;;2.17;;
35324;SDS011;35135;47.510;19.036;2023-07-29T05:05:52;2.60;;;2.20;;
35324;SDS011;35135;47.510;19.036;2023-07-29T05:08:20;2.47;;;2.17;;
35324;SDS011;35135;47.510;19.036;2023-07-29T05:10:49;3.53;;;2.00;;
35324;SDS011;35135;47.510;19.036;2023-07-29T05:13:16;2.03;;;1.83;;
35324;SDS011;35135;47.510;19.036;2023-07-29T05:15:42;2.38;;;2.15;;
35324;SDS011;35135;47.510;19.036;2023-07-29T05:18:08;3.95;;;2.15;;
35324;SDS011;35135;47.510;19.036;2023-07-29T05:20:34;3.38;;;2.10;;
35324;SDS011;35135;47.510;19.036;2023-07-29T05:22:59;2.72;;;2.15;;
35324;SDS011;35135;47.510;19.036;2023-07-29T05:25:26;2.47;;;1.77;;
35324;SDS011;35135;47.510;19.036;2023-07-29T05:27:52;2.50;;;2.05;;
35324;SDS011;35135;47.510;19.036;2023-07-29T05:30:18;2.80;;;2.20;;
35324;SDS011;35135;47.510;19.036;2023-07-29T05:32:43;3.78;;;2.25;;
35324;SDS011;35135;47.510;19.036;2023-07-29T05:35:09;2.90;;;2.47;;
35324;SDS011;35135;47.510;19.036;2023-07-29T05:37:38;3.65;;;2.30;;
35324;SDS011;35135;47.510;19.036;2023-07-29T05:40:07;2.25;;;2.05;;
35324;SDS011;35135;47.510;19.036;2023-07-29T05:42:33;2.83;;;1.92;;
35324;SDS011;35135;47.510;19.036;2023-07-29T05:45:00;2.38;;;1.88;;
35324;SDS011;35135;47.510;19.036;2023-07-29T05:47:26;2.45;;;2.20;;
35324;SDS011;35135;47.510;19.036;2023-07-29T05:49:52;2.55;;;2.08;;
35324;SDS011;35135;47.510;19.036;2023-07-29T05:52:18;2.45;;;2.25;;
35324;SDS011;35135;47.510;19.036;2023-07-29T05:54:44;2.80;;;2.00;;
35324;SDS011;35135;47.510;19.036;2023-07-29T05:57:10;2.30;;;2.08;;
35324;SDS011;35135;47.510;19.036;2023-07-29T05:59:37;2.80;;;2.03;;
35324;SDS011;35135;47.510;19.036;2023-07-29T06:02:02;2.47;;;2.28;;
35324;SDS011;35135;47.510;19.036;2023-07-29T06:04:28;2.45;;;2.25;;
35324;SDS011;35135;47.510;19.036;2023-07-29T06:06:54;3.58;;;2.53;;
35324;SDS011;35135;47.510;19.036;2023-07-29T06:09:21;3.17;;;2.15;;
35324;SDS011;35135;47.510;19.036;2023-07-29T06:11:47;2.90;;;2.25;;
35324;SDS011;35135;47.510;19.036;2023-07-29T06:14:12;2.20;;;2.00;;
35324;SDS011;35135;47.510;19.036;2023-07-29T06:16:38;3.22;;;2.60;;
35324;SDS011;35135;47.510;19.036;2023-07-29T06:19:04;3.08;;;2.28;;
35324;SDS011;35135;47.510;19.036;2023-07-29T06:21:29;3.30;;;2.17;;
35324;SDS011;35135;47.510;19.036;2023-07-29T06:23:55;2.65;;;2.20;;
35324;SDS011;35135;47.510;19.036;2023-07-29T06:26:21;2.47;;;2.15;;
35324;SDS011;35135;47.510;19.036;2023-07-29T06:28:47;3.15;;;2.10;;
35324;SDS011;35135;47.510;19.036;2023-07-29T06:31:13;2.60;;;2.40;;
35324;SDS011;35135;47.510;19.036;2023-07-29T06:33:38;4.75;;;2.20;;
35324;SDS011;35135;47.510;19.036;2023-07-29T06:36:04;2.30;;;2.00;;
35324;SDS011;35135;47.510;19.036;2023-07-29T06:38:30;2.63;;;2.42;;
35324;SDS011;35135;47.510;19.036;2023-07-29T06:40:56;2.75;;;1.90;;
35324;SDS011;35135;47.510;19.036;2023-07-29T06:43:21;2.38;;;2.17;;
35324;SDS011;35135;47.510;19.036;2023-07-29T06:45:47;3.28;;;2.30;;
35324;SDS011;35135;47.510;19.036;2023-07-29T06:48:13;2.42;;;2.22;;
35324;SDS011;35135;47.510;19.036;2023-07-29T06:50:38;2.65;;;2.20;;
35324;SDS011;35135;47.510;19.036;2023-07-29T06:53:04;2.70;;;2.05;;
35324;SDS011;35135;47.510;19.036;2023-07-29T06:55:30;2.40;;;2.20;;
35324;SDS011;35135;47.510;19.036;2023-07-29T06:57:55;2.28;;;2.08;;
35324;SDS011;35135;47.510;19.036;2023-07-29T07:00:21;2.17;;;1.90;;
35324;SDS011;35135;47.510;19.036;2023-07-29T07:02:47;2.58;;;2.35;;
35324;SDS011;35135;47.510;19.036;2023-07-29T07:05:12;3.72;;;2.40;;
35324;SDS011;35135;47.510;19.036;2023-07-29T07:07:38;2.65;;;2.05;;
35324;SDS011;35135;47.510;19.036;2023-07-29T07:10:04;2.95;;;2.35;;
35324;SDS011;35135;47.510;19.036;2023-07-29T07:12:30;2.40;;;2.20;;
35324;SDS011;35135;47.510;19.036;2023-07-29T07:14:56;2.53;;;2.10;;
35324;SDS011;35135;47.510;19.036;2023-07-29T07:17:21;1.92;;;1.73;;
35324;SDS011;35135;47.510;19.036;2023-07-29T07:19:47;2.47;;;1.98;;
35324;SDS011;35135;47.510;19.036;2023-07-29T07:22:13;2.30;;;2.10;;
35324;SDS011;35135;47.510;19.036;2023-07-29T07:24:38;2.33;;;2.08;;
35324;SDS011;35135;47.510;19.036;2023-07-29T07:27:04;2.60;;;2.20;;
35324;SDS011;35135;47.510;19.036;2023-07-29T07:29:30;2.03;;;1.83;;
35324;SDS011;35135;47.510;19.036;2023-07-29T07:31:56;2.22;;;2.03;;
35324;SDS011;35135;47.510;19.036;2023-07-29T07:34:22;3.58;;;2.15;;
35324;SDS011;35135;47.510;19.036;2023-07-29T07:36:48;2.30;;;1.98;;
35324;SDS011;35135;47.510;19.036;2023-07-29T07:39:14;2.55;;;2.20;;
35324;SDS011;35135;47.510;19.036;2023-07-29T07:41:41;4.72;;;2.35;;
35324;SDS011;35135;47.510;19.036;2023-07-29T07:44:07;2.10;;;1.90;;
35324;SDS011;35135;47.510;19.036;2023-07-29T07:46:33;3.35;;;2.00;;
35324;SDS011;35135;47.510;19.036;2023-07-29T07:48:58;2.17;;;1.98;;
35324;SDS011;35135;47.510;19.036;2023-07-29T07:51:24;3.10;;;2.20;;
35324;SDS011;35135;47.510;19.036;2023-07-29T07:53:50;2.70;;;2.08;;
35324;SDS011;35135;47.510;19.036;2023-07-29T07:56:15;2.85;;;2.17;;
35324;SDS011;35135;47.510;19.036;2023-07-29T07:58:41;2.50;;;2.30;;
35324;SDS011;35135;47.510;19.036;2023-07-29T08:01:07;2.28;;;2.00;;
35324;SDS011;35135;47.510;19.036;2023-07-29T08:03:34;2.42;;;2.00;;
35324;SDS011;35135;47.510;19.036;2023-07-29T08:06:00;2.92;;;2.17;;
35324;SDS011;35135;47.510;19.036;2023-07-29T08:08:27;3.05;;;2.28;;
35324;SDS011;35135;47.510;19.036;2023-07-29T08:10:53;2.63;;;2.00;;
35324;SDS011;35135;47.510;19.036;2023-07-29T08:13:20;2.05;;;1.85;;
35324;SDS011;35135;47.510;19.036;2023-07-29T08:15:47;2.47;;;2.28;;
35324;SDS011;35135;47.510;19.036;2023-07-29T08:18:13;2.92;;;2.20;;
35324;SDS011;35135;47.510;19.036;2023-07-29T08:20:39;2.35;;;1.95;;
35324;SDS011;35135;47.510;19.036;2023-07-29T08:23:05;2.38;;;2.17;;
35324;SDS011;35135;47.510;19.036;2023-07-29T08:25:30;2.70;;;2.38;;
35324;SDS011;35135;47.510;19.036;2023-07-29T08:27:56;3.10;;;2.20;;
35324;SDS011;35135;47.510;19.036;2023-07-29T08:30:22;1.90;;;1.70;;
35324;SDS011;35135;47.510;19.036;2023-07-29T08:32:47;2.45;;;2.08;;
35324;SDS011;35135;47.510;19.036;2023-07-29T08:35:13;2.03;;;1.83;;
35324;SDS011;35135;47.510;19.036;2023-07-29T08:37:39;2.25;;;2.05;;
35324;SDS011;35135;47.510;19.036;2023-07-29T08:40:05;2.47;;;1.92;;
35324;SDS011;35135;47.510;19.036;2023-07-29T08:42:31;2.10;;;1.90;;
35324;SDS011;35135;47.510;19.036;2023-07-29T08:45:06;3.05;;;1.80;;
35324;SDS011;35135;47.510;19.036;2023-07-29T08:47:33;2.35;;;2.03;;
35324;SDS011;35135;47.510;19.036;2023-07-29T08:49:58;2.47;;;2.00;;
35324;SDS011;35135;47.510;19.036;2023-07-29T08:52:26;2.40;;;2.10;;
35324;SDS011;35135;47.510;19.036;2023-07-29T08:54:54;2.50;;;1.75;;
35324;SDS011;35135;47.510;19.036;2023-07-29T08:57:20;1.77;;;1.65;;
35324;SDS011;35135;47.510;19.036;2023-07-29T08:59:47;2.10;;;1.90;;
35324;SDS011;35135;47.510;19.036;2023-07-29T09:02:13;2.50;;;1.98;;
35324;SDS011;35135;47.510;19.036;2023-07-29T09:04:38;2.53;;;2.03;;
35324;SDS011;35135;47.510;19.036;2023-07-29T09:07:04;1.88;;;1.63;;
35324;SDS011;35135;47.510;19.036;2023-07-29T09:09:32;2.22;;;1.90;;
35324;SDS011;35135;47.510;19.036;2023-07-29T09:11:58;1.95;;;1.77;;
35324;SDS011;35135;47.510;19.036;2023-07-29T09:14:24;2.30;;;2.10;;
35324;SDS011;35135;47.510;19.036;2023-07-29T09:16:50;2.20;;;1.90;;
35324;SDS011;35135;47.510;19.036;2023-07-29T09:19:16;2.22;;;2.03;;
35324;SDS011;35135;47.510;19.036;2023-07-29T09:21:42;2.33;;;2.08;;
35324;SDS011;35135;47.510;19.036;2023-07-29T09:24:07;2.67;;;1.90;;
35324;SDS011;35135;47.510;19.036;2023-07-29T09:26:34;1.90;;;1.70;;
35324;SDS011;35135;47.510;19.036;2023-07-29T09:29:00;2.17;;;1.92;;
35324;SDS011;35135;47.510;19.036;2023-07-29T09:31:26;2.25;;;1.60;;
35324;SDS011;35135;47.510;19.036;2023-07-29T09:33:57;1.80;;;1.55;;
35324;SDS011;35135;47.510;19.036;2023-07-29T09:36:23;2.08;;;1.80;;
35324;SDS011;35135;47.510;19.036;2023-07-29T09:38:56;2.05;;;1.65;;
35324;SDS011;35135;47.510;19.036;2023-07-29T09:41:23;2.08;;;1.85;;
35324;SDS011;35135;47.510;19.036;2023-07-29T09:43:54;2.45;;;1.77;;
35324;SDS011;35135;47.510;19.036;2023-07-29T09:46:23;2.38;;;1.77;;
35324;SDS011;35135;47.510;19.036;2023-07-29T09:48:52;2.13;;;1.67;;
35324;SDS011;35135;47.510;19.036;2023-07-29T09:51:21;2.00;;;1.80;;
35324;SDS011;35135;47.510;19.036;2023-07-29T09:53:48;2.10;;;1.80;;
35324;SDS011;35135;47.510;19.036;2023-07-29T09:56:15;2.10;;;1.85;;
35324;SDS011;35135;47.510;19.036;2023-07-29T09:58:42;1.70;;;1.60;;
35324;SDS011;35135;47.510;19.036;2023-07-29T10:01:13;2.00;;;1.80;;
35324;SDS011;35135;47.510;19.036;2023-07-29T10:03:39;1.77;;;1.60;;
35324;SDS011;35135;47.510;19.036;2023-07-29T10:06:06;1.65;;;1.55;;
35324;SDS011;35135;47.510;19.036;2023-07-29T10:08:33;2.10;;;1.60;;
35324;SDS011;35135;47.510;19.036;2023-07-29T10:11:08;1.70;;;1.50;;
35324;SDS011;35135;47.510;19.036;2023-07-29T10:13:35;1.70;;;1.60;;
35324;SDS011;35135;47.510;19.036;2023-07-29T10:16:02;1.73;;;1.60;;
35324;SDS011;35135;47.510;19.036;2023-07-29T10:18:29;1.65;;;1.55;;
35324;SDS011;35135;47.510;19.036;2023-07-29T10:20:57;1.60;;;1.45;;
35324;SDS011;35135;47.510;19.036;2023-07-29T10:23:27;1.63;;;1.52;;
35324;SDS011;35135;47.510;19.036;2023-07-29T10:26:04;1.48;;;1.30;;
35324;SDS011;35135;47.510;19.036;2023-07-29T10:28:33;1.92;;;1.48;;
35324;SDS011;35135;47.510;19.036;2023-07-29T10:31:04;1.53;;;1.43;;
35324;SDS011;35135;47.510;19.036;2023-07-29T10:33:31;1.70;;;1.60;;
35324;SDS011;35135;47.510;19.036;2023-07-29T10:35:58;1.55;;;1.45;;
35324;SDS011;35135;47.510;19.036;2023-07-29T10:38:26;1.40;;;1.30;;
35324;SDS011;35135;47.510;19.036;2023-07-29T10:40:53;1.70;;;1.60;;
35324;SDS011;35135;47.510;19.036;2023-07-29T10:43:27;2.00;;;1.70;;
35324;SDS011;35135;47.510;19.036;2023-07-29T10:45:58;1.55;;;1.45;;
35324;SDS011;35135;47.510;19.036;2023-07-29T10:48:44;1.48;;;1.38;;
35324;SDS011;35135;47.510;19.036;2023-07-29T10:53:55;3.53;;;1.45;;
35324;SDS011;35135;47.510;19.036;2023-07-29T10:56:32;2.13;;;1.30;;
35324;SDS011;35135;47.510;19.036;2023-07-29T10:59:02;1.38;;;1.20;;
35324;SDS011;35135;47.510;19.036;2023-07-29T11:01:51;1.73;;;1.40;;
35324;SDS011;35135;47.510;19.036;2023-07-29T11:04:29;1.40;;;1.25;;
35324;SDS011;35135;47.510;19.036;2023-07-29T11:09:42;1.85;;;1.30;;
35324;SDS011;35135;47.510;19.036;2023-07-29T11:15:13;1.48;;;1.10;;
35324;SDS011;35135;47.510;19.036;2023-07-29T11:18:00;1.30;;;1.10;;
35324;SDS011;35135;47.510;19.036;2023-07-29T11:20:28;1.67;;;1.15;;
35324;SDS011;35135;47.510;19.036;2023-07-29T11:22:58;1.58;;;1.48;;
35324;SDS011;35135;47.510;19.036;2023-07-29T11:25:27;1.08;;;0.98;;
35324;SDS011;35135;47.510;19.036;2023-07-29T11:27:55;1.40;;;1.20;;
35324;SDS011;35135;47.510;19.036;2023-07-29T11:30:21;1.42;;;1.20;;
35324;SDS011;35135;47.510;19.036;2023-07-29T11:32:48;1.30;;;1.20;;
35324;SDS011;35135;47.510;19.036;2023-07-29T11:35:15;1.60;;;1.23;;
35324;SDS011;35135;47.510;19.036;2023-07-29T11:37:43;1.45;;;1.33;;
35324;SDS011;35135;47.510;19.036;2023-07-29T11:40:22;1.30;;;1.20;;
35324;SDS011;35135;47.510;19.036;2023-07-29T11:42:50;1.42;;;1.33;;
35324;SDS011;35135;47.510;19.036;2023-07-29T11:45:16;1.52;;;1.30;;
35324;SDS011;35135;47.510;19.036;2023-07-29T11:47:42;1.40;;;1.20;;
35324;SDS011;35135;47.510;19.036;2023-07-29T11:50:09;1.73;;;1.10;;
35324;SDS011;35135;47.510;19.036;2023-07-29T11:52:38;1.42;;;1.33;;
35324;SDS011;35135;47.510;19.036;2023-07-29T11:55:06;1.50;;;1.10;;
35324;SDS011;35135;47.510;19.036;2023-07-29T11:57:38;1.50;;;1.40;;
35324;SDS011;35135;47.510;19.036;2023-07-29T12:00:06;1.13;;;1.02;;
35324;SDS011;35135;47.510;19.036;2023-07-29T12:02:36;1.48;;;1.23;;
35324;SDS011;35135;47.510;19.036;2023-07-29T12:05:03;1.45;;;1.10;;
35324;SDS011;35135;47.510;19.036;2023-07-29T12:07:30;1.27;;;1.13;;
35324;SDS011;35135;47.510;19.036;2023-07-29T12:09:56;1.42;;;1.25;;
35324;SDS011;35135;47.510;19.036;2023-07-29T12:12:22;1.52;;;1.40;;
35324;SDS011;35135;47.510;19.036;2023-07-29T12:14:48;1.17;;;1.08;;
35324;SDS011;35135;47.510;19.036;2023-07-29T12:17:14;1.63;;;1.27;;
35324;SDS011;35135;47.510;19.036;2023-07-29T12:19:40;1.50;;;1.20;;
35324;SDS011;35135;47.510;19.036;2023-07-29T12:22:07;1.38;;;1.27;;
35324;SDS011;35135;47.510;19.036;2023-07-29T12:24:35;1.50;;;1.23;;
35324;SDS011;35135;47.510;19.036;2023-07-29T12:27:02;1.33;;;1.23;;
35324;SDS011;35135;47.510;19.036;2023-07-29T12:29:28;1.98;;;1.60;;
35324;SDS011;35135;47.510;19.036;2023-07-29T12:32:01;1.40;;;1.30;;
35324;SDS011;35135;47.510;19.036;2023-07-29T12:34:28;1.63;;;1.30;;
35324;SDS011;35135;47.510;19.036;2023-07-29T12:36:56;1.95;;;1.17;;
35324;SDS011;35135;47.510;19.036;2023-07-29T12:41:53;1.38;;;1.20;;
35324;SDS011;35135;47.510;19.036;2023-07-29T12:44:22;1.58;;;1.30;;
35324;SDS011;35135;47.510;19.036;2023-07-29T12:46:48;1.45;;;1.27;;
35324;SDS011;35135;47.510;19.036;2023-07-29T12:49:14;1.30;;;1.20;;
35324;SDS011;35135;47.510;19.036;2023-07-29T12:51:40;1.40;;;1.30;;
35324;SDS011;35135;47.510;19.036;2023-07-29T12:54:06;1.75;;;1.48;;
35324;SDS011;35135;47.510;19.036;2023-07-29T12:56:32;2.10;;;1.48;;
35324;SDS011;35135;47.510;19.036;2023-07-29T12:58:59;1.63;;;1.10;;
35324;SDS011;35135;47.510;19.036;2023-07-29T13:01:26;1.80;;;1.42;;
35324;SDS011;35135;47.510;19.036;2023-07-29T13:03:52;1.92;;;1.30;;
35324;SDS011;35135;47.510;19.036;2023-07-29T13:06:18;1.50;;;1.40;;
35324;SDS011;35135;47.510;19.036;2023-07-29T13:08:44;1.30;;;1.20;;
35324;SDS011;35135;47.510;19.036;2023-07-29T13:11:10;1.40;;;1.30;;
35324;SDS011;35135;47.510;19.036;2023-07-29T13:13:36;1.50;;;1.30;;
35324;SDS011;35135;47.510;19.036;2023-07-29T13:16:02;1.73;;;1.30;;
35324;SDS011;35135;47.510;19.036;2023-07-29T13:18:28;1.30;;;1.20;;
35324;SDS011;35135;47.510;19.036;2023-07-29T13:20:54;2.70;;;1.58;;
35324;SDS011;35135;47.510;19.036;2023-07-29T13:23:20;1.65;;;1.40;;
35324;SDS011;35135;47.510;19.036;2023-07-29T13:25:46;2.80;;;1.17;;
35324;SDS011;35135;47.510;19.036;2023-07-29T13:28:12;1.42;;;1.33;;
35324;SDS011;35135;47.510;19.036;2023-07-29T13:30:38;1.45;;;1.33;;
35324;SDS011;35135;47.510;19.036;2023-07-29T13:33:04;1.40;;;1.30;;
35324;SDS011;35135;47.510;19.036;2023-07-29T13:35:31;1.85;;;1.60;;
35324;SDS011;35135;47.510;19.036;2023-07-29T13:37:57;1.50;;;1.23;;
35324;SDS011;35135;47.510;19.036;2023-07-29T13:40:22;1.33;;;1.15;;
35324;SDS011;35135;47.510;19.036;2023-07-29T13:42:48;1.30;;;1.13;;
35324;SDS011;35135;47.510;19.036;2023-07-29T13:45:14;1.40;;;1.30;;
35324;SDS011;35135;47.510;19.036;2023-07-29T13:47:40;1.40;;;1.30;;
35324;SDS011;35135;47.510;19.036;2023-07-29T13:50:05;1.60;;;1.42;;
35324;SDS011;35135;47.510;19.036;2023-07-29T13:52:33;1.60;;;1.40;;
35324;SDS011;35135;47.510;19.036;2023-07-29T13:54:59;1.80;;;1.50;;
35324;SDS011;35135;47.510;19.036;2023-07-29T13:57:24;1.83;;;1.50;;
35324;SDS011;35135;47.510;19.036;2023-07-29T13:59:50;1.63;;;1.35;;
35324;SDS011;35135;47.510;19.036;2023-07-29T14:02:16;1.65;;;1.33;;
35324;SDS011;35135;47.510;19.036;2023-07-29T14:04:41;1.70;;;1.30;;
35324;SDS011;35135;47.510;19.036;2023-07-29T14:07:07;1.50;;;1.25;;
35324;SDS011;35135;47.510;19.036;2023-07-29T14:09:33;1.90;;;1.35;;
35324;SDS011;35135;47.510;19.036;2023-07-29T14:11:58;1.35;;;1.25;;
35324;SDS011;35135;47.510;19.036;2023-07-29T14:14:24;1.50;;;1.30;;
35324;SDS011;35135;47.510;19.036;2023-07-29T14:16:50;1.90;;;1.50;;
35324;SDS011;35135;47.510;19.036;2023-07-29T14:19:15;1.10;;;1.00;;
35324;SDS011;35135;47.510;19.036;2023-07-29T14:21:41;1.60;;;1.50;;
35324;SDS011;35135;47.510;19.036;2023-07-29T14:24:07;1.40;;;1.30;;
35324;SDS011;35135;47.510;19.036;2023-07-29T14:26:32;1.80;;;1.60;;
35324;SDS011;35135;47.510;19.036;2023-07-29T14:28:58;1.80;;;1.48;;
35324;SDS011;35135;47.510;19.036;2023-07-29T14:31:23;1.13;;;1.02;;
35324;SDS011;35135;47.510;19.036;2023-07-29T14:33:49;1.40;;;1.30;;
35324;SDS011;35135;47.510;19.036;2023-07-29T14:36:18;1.38;;;1.27;;
35324;SDS011;35135;47.510;19.036;2023-07-29T14:38:43;1.73;;;1.63;;
35324;SDS011;35135;47.510;19.036;2023-07-29T14:41:09;1.50;;;1.40;;
35324;SDS011;35135;47.510;19.036;2023-07-29T14:43:35;1.45;;;1.35;;
35324;SDS011;35135;47.510;19.036;2023-07-29T14:46:01;1.40;;;1.30;;
35324;SDS011;35135;47.510;19.036;2023-07-29T14:48:27;1.77;;;1.58;;
35324;SDS011;35135;47.510;19.036;2023-07-29T14:50:53;1.42;;;1.30;;
35324;SDS011;35135;47.510;19.036;2023-07-29T14:53:18;1.40;;;1.30;;